Time;durP1;ratioP1;P1;durP2;ratioP2;P2;SDS_P1;SDS_P2;PMS_P1;PMS_P2;Temp;Humidity;BMP_temperature;BMP_pressure;BME280_temperature;BME280_humidity;BME280_pressure;Samples;Min_cycle;Max_cycle;Signal;HPM_P1;HPM_P2
2021/10/02 00:34:22;;;;;;;7.77;4.27;;;;;;;4.09;72.91;101082.59;1737182;80;20170;-55
2021/10/02 00:45:00;;;;;;;5.87;4.37;;;;;;;4.10;72.88;101077.72;1746659;80;21515;-54
2021/10/02 00:47:28;;;;;;;10.57;6.43;;;;;;;4.09;73.04;101082.16;1745116;80;21158;-54
2021/10/02 00:49:55;;;;;;;7.83;5.80;;;;;;;4.07;73.10;101071.97;1746858;80;21013;-54
2021/10/02 00:52:23;;;;;;;7.23;4.93;;;;;;;4.07;73.22;101065.75;1743519;80;21530;-54
2021/10/02 00:54:52;;;;;;;8.37;5.23;;;;;;;4.06;73.27;101062.19;1752513;80;21017;-54
2021/10/02 00:57:18;;;;;;;14.17;4.83;;;;;;;4.09;73.28;101062.61;1749060;80;21373;-54
2021/10/02 00:59:47;;;;;;;9.40;6.07;;;;;;;4.09;73.28;101062.17;1750080;80;21373;-54
2021/10/02 01:02:30;;;;;;;7.17;5.10;;;;;;;4.11;73.35;101067.50;1710654;81;20998;-54
2021/10/02 01:05:10;;;;;;;8.87;5.17;;;;;;;4.15;73.47;101063.52;1709987;82;21122;-54
2021/10/02 01:07:54;;;;;;;8.20;5.80;;;;;;;4.18;73.44;101064.82;1653856;83;21344;-54
2021/10/02 01:10:45;;;;;;;11.57;6.50;;;;;;;4.21;73.44;101068.38;1692089;82;21109;-55
2021/10/02 01:13:40;;;;;;;13.67;7.77;;;;;;;4.24;73.47;101064.39;1698861;82;20918;-55
2021/10/02 01:16:25;;;;;;;15.98;8.93;;;;;;;4.25;73.47;101065.72;1693152;83;20962;-55
2021/10/02 01:19:07;;;;;;;14.70;9.63;;;;;;;4.26;73.45;101070.13;1692584;82;21116;-55
2021/10/02 01:21:58;;;;;;;16.20;10.17;;;;;;;4.25;73.47;101059.50;1691929;83;22351;-54
2021/10/02 01:25:05;;;;;;;20.40;11.73;;;;;;;4.24;73.56;101066.61;1694837;83;21463;-54
2021/10/02 01:28:03;;;;;;;23.13;11.27;;;;;;;4.21;73.54;101068.38;1693598;82;21088;-54
2021/10/02 01:33:38;;;;;;;12.60;7.87;;;;;;;4.12;73.65;101066.61;1688810;83;20975;-55
2021/10/02 01:36:33;;;;;;;19.07;9.13;;;;;;;4.12;73.85;101061.28;1688167;83;21320;-54
2021/10/02 01:47:16;;;;;;;;;;;;;;;4.22;74.18;101058.16;1697054;83;21511;-54
2021/10/02 01:49:52;;;;;;;12.80;8.83;;;;;;;4.25;74.08;101062.17;1698219;83;20585;-53
2021/10/02 01:52:24;;;;;;;18.60;10.53;;;;;;;4.25;73.98;101064.39;1698800;83;20986;-54
2021/10/02 01:54:54;;;;;;;20.57;11.23;;;;;;;4.25;73.94;101060.84;1698503;83;21120;-53
2021/10/02 01:57:22;;;;;;;24.77;12.40;;;;;;;4.25;73.94;101064.39;1696871;82;21491;-54
2021/10/02 01:59:48;;;;;;;27.70;13.10;;;;;;;4.25;74.02;101059.06;1697429;83;21478;-54
2021/10/02 02:02:15;;;;;;;28.57;13.53;;;;;;;4.25;74.04;101060.84;1699686;83;21312;-54
2021/10/02 02:04:41;;;;;;;26.93;12.37;;;;;;;4.23;74.07;101060.83;1700691;83;21437;-54
2021/10/02 02:07:08;;;;;;;20.70;10.20;;;;;;;4.24;74.07;101063.05;1697059;83;21509;-54
2021/10/02 02:09:38;;;;;;;30.73;11.67;;;;;;;4.25;74.10;101062.17;1697334;83;21405;-54
2021/10/02 02:12:09;;;;;;;22.43;10.70;;;;;;;4.27;74.13;101065.25;1696395;82;20964;-54
2021/10/02 02:14:36;;;;;;;26.90;10.83;;;;;;;4.29;74.12;101063.48;1695807;83;20993;-54
2021/10/02 02:17:03;;;;;;;28.50;11.30;;;;;;;4.32;74.12;101061.27;1697990;83;20996;-54
2021/10/02 02:19:30;;;;;;;29.07;11.37;;;;;;;4.34;74.12;101063.48;1697326;83;21071;-54
2021/10/02 02:21:57;;;;;;;25.13;11.53;;;;;;;4.37;74.09;101060.80;1699915;83;20975;-54
2021/10/02 02:24:23;;;;;;;27.33;12.60;;;;;;;4.38;74.02;101062.57;1700263;83;20920;-54
2021/10/02 02:26:50;;;;;;;29.87;13.00;;;;;;;4.39;74.03;101059.91;1699799;83;20938;-54
2021/10/02 02:29:16;;;;;;;28.63;13.27;;;;;;;4.40;74.02;101062.13;1697275;82;20952;-54
2021/10/02 02:31:43;;;;;;;23.43;13.57;;;;;;;4.40;73.94;101059.02;1699495;83;21135;-54
2021/10/02 02:34:09;;;;;;;38.20;16.67;;;;;;;4.40;73.88;101059.47;1694520;83;20983;-54
2021/10/02 02:36:36;;;;;;;36.97;14.70;;;;;;;4.38;73.85;101067.46;1700387;83;20958;-54
2021/10/02 02:39:02;;;;;;;31.83;15.40;;;;;;;4.36;73.87;101054.58;1698332;83;20911;-54
2021/10/02 02:41:29;;;;;;;32.87;13.40;;;;;;;4.34;73.89;101053.68;1699063;83;21554;-54
2021/10/02 02:43:55;;;;;;;31.10;13.33;;;;;;;4.35;73.89;101051.91;1697984;82;21105;-54
2021/10/02 02:46:32;;;;;;;25.43;11.40;;;;;;;4.35;73.91;101048.80;1699422;83;20966;-54
2021/10/02 02:49:04;;;;;;;29.57;11.13;;;;;;;4.33;73.90;101052.38;1700321;82;21402;-54
2021/10/02 02:51:57;;;;;;;30.03;12.07;;;;;;;4.31;73.86;101051.05;1702455;82;20916;-54
2021/10/02 02:54:36;;;;;;;31.40;14.25;;;;;;;4.33;74.01;101053.27;1699093;83;21049;-54
2021/10/02 02:57:16;;;;;;;29.17;12.93;;;;;;;4.35;74.00;101047.46;1696222;83;21087;-54
2021/10/02 03:00:03;;;;;;;22.17;12.23;;;;;;;4.35;74.11;101042.13;1698993;82;21058;-54
2021/10/02 03:02:32;;;;;;;27.40;12.93;;;;;;;4.35;74.03;101041.23;1694845;83;21109;-54
2021/10/02 03:05:00;;;;;;;25.33;14.23;;;;;;;4.33;74.06;101034.61;1700604;83;20963;-54
2021/10/02 03:07:26;;;;;;;27.23;14.23;;;;;;;4.32;74.09;101035.50;1703406;82;20935;-54
2021/10/02 03:09:53;;;;;;;28.70;14.80;;;;;;;4.31;74.14;101037.72;1698784;83;21645;-54
2021/10/02 03:12:36;;;;;;;24.77;14.03;;;;;;;4.29;74.17;101034.16;1694223;82;21583;-54
2021/10/02 03:15:04;;;;;;;29.43;14.00;;;;;;;4.29;74.20;101032.83;1700609;82;21081;-55
2021/10/02 03:17:32;;;;;;;26.37;13.20;;;;;;;4.26;74.20;101027.48;1700517;82;20942;-55
2021/10/02 03:20:01;;;;;;;27.17;11.70;;;;;;;4.25;74.18;101019.53;1700629;82;20962;-55
2021/10/02 03:22:29;;;;;;;29.27;11.33;;;;;;;4.25;74.21;101031.08;1681749;83;20995;-54
2021/10/02 03:24:56;;;;;;;25.33;13.53;;;;;;;4.26;74.29;101026.60;1682412;83;20950;-55
2021/10/02 03:27:22;;;;;;;20.30;11.27;;;;;;;4.27;74.33;101025.27;1710974;81;21140;-54
2021/10/02 03:29:50;;;;;;;17.00;11.17;;;;;;;4.28;74.32;101027.05;1715308;82;21167;-54
2021/10/02 03:32:16;;;;;;;20.77;11.17;;;;;;;4.29;74.33;101023.50;1687544;82;21764;-54
2021/10/02 03:34:43;;;;;;;33.13;13.43;;;;;;;4.32;74.35;101024.83;1711974;81;21479;-54
2021/10/02 03:37:09;;;;;;;23.80;11.77;;;;;;;4.32;74.36;101018.17;1709804;81;22617;-55
2021/10/02 03:39:36;;;;;;;25.57;14.07;;;;;;;4.32;74.34;101018.17;1719454;82;21655;-54
2021/10/02 03:42:14;;;;;;;27.97;15.13;;;;;;;4.33;74.27;101025.28;1717240;81;21093;-54
2021/10/02 03:44:45;;;;;;;23.23;12.67;;;;;;;4.31;74.29;101028.39;1714333;82;21080;-55
2021/10/02 03:47:14;;;;;;;30.77;13.93;;;;;;;4.30;74.28;101025.27;1711928;81;23134;-54
2021/10/02 03:49:41;;;;;;;26.97;13.53;;;;;;;4.30;74.23;101027.05;1711213;82;20908;-54
2021/10/02 03:52:09;;;;;;;23.07;12.63;;;;;;;4.27;74.17;101021.27;1716484;82;21056;-54
2021/10/02 03:54:35;;;;;;;27.57;13.27;;;;;;;4.26;74.13;101027.48;1707573;82;21053;-55
2021/10/02 03:57:02;;;;;;;21.77;11.67;;;;;;;4.24;74.18;101021.75;1709919;82;21120;-55
2021/10/02 03:59:29;;;;;;;26.37;12.67;;;;;;;4.25;74.25;101027.08;1715184;82;21163;-54
2021/10/02 04:01:56;;;;;;;18.37;12.17;;;;;;;4.26;74.36;101024.83;1711631;82;21081;-54
2021/10/02 04:04:22;;;;;;;23.93;13.07;;;;;;;4.26;74.50;101023.49;1711415;82;21103;-54
2021/10/02 04:06:50;;;;;;;23.10;13.27;;;;;;;4.28;74.63;101030.16;1709585;81;21088;-54
2021/10/02 04:09:18;;;;;;;28.13;13.27;;;;;;;4.30;74.78;101028.38;1704544;82;21136;-54
2021/10/02 04:11:46;;;;;;;21.27;12.90;;;;;;;4.32;74.83;101035.50;1715531;82;20934;-54
2021/10/02 04:14:14;;;;;;;24.20;12.77;;;;;;;4.34;74.92;101031.50;1713659;82;20990;-54
2021/10/02 04:16:42;;;;;;;28.17;15.30;;;;;;;4.35;74.94;101031.91;1705431;81;22209;-54
2021/10/02 04:19:08;;;;;;;27.57;14.63;;;;;;;4.36;75.00;101026.58;1710860;81;21818;-53
2021/10/02 04:21:35;;;;;;;26.90;15.67;;;;;;;4.37;75.05;101021.70;1716211;82;20938;-54
2021/10/02 04:24:02;;;;;;;26.10;14.60;;;;;;;4.37;75.10;101023.47;1716376;81;21731;-54
2021/10/02 04:26:28;;;;;;;23.83;15.13;;;;;;;4.38;75.17;101025.25;1715191;82;21407;-56
2021/10/02 04:28:56;;;;;;;39.60;13.57;;;;;;;4.39;75.29;101019.92;1715699;82;21322;-53
2021/10/02 04:31:23;;;;;;;18.47;11.47;;;;;;;4.43;75.39;101019.00;1716572;82;21634;-54
2021/10/02 04:33:49;;;;;;;23.30;12.70;;;;;;;4.47;75.46;101022.56;1710460;82;20924;-54
2021/10/02 04:36:16;;;;;;;25.60;12.30;;;;;;;4.50;75.66;101016.78;1715162;82;21069;-54
2021/10/02 04:38:42;;;;;;;28.50;14.03;;;;;;;4.54;75.79;101018.53;1710435;82;20950;-52
2021/10/02 04:41:14;;;;;;;23.53;12.97;;;;;;;4.62;75.89;101009.61;1714261;82;21293;-53
2021/10/02 04:43:41;;;;;;;25.13;13.97;;;;;;;4.67;76.02;101018.05;1707146;81;20962;-53
2021/10/02 04:46:11;;;;;;;26.10;15.17;;;;;;;4.74;76.14;101022.91;1715858;82;21002;-54
2021/10/02 04:48:39;;;;;;;27.87;16.40;;;;;;;4.80;76.22;101023.75;1709345;82;21125;-54
2021/10/02 04:51:06;;;;;;;22.87;14.40;;;;;;;4.87;76.37;101023.27;1708355;81;21161;-55
2021/10/02 04:53:32;;;;;;;28.47;15.40;;;;;;;4.93;76.49;101017.92;1704961;82;21107;-54
2021/10/02 04:56:00;;;;;;;20.80;14.23;;;;;;;4.98;76.63;101016.11;1705583;82;21264;-54
2021/10/02 04:58:27;;;;;;;24.97;14.13;;;;;;;5.05;76.75;101008.95;1703215;82;21148;-53
2021/10/02 05:00:54;;;;;;;26.33;15.00;;;;;;;5.12;76.95;101009.34;1686553;83;21066;-54
2021/10/02 05:03:22;;;;;;;24.53;14.20;;;;;;;5.18;77.19;101019.56;1689292;83;22043;-53
2021/10/02 05:05:49;;;;;;;27.10;14.90;;;;;;;5.25;77.38;101015.95;1690536;83;20945;-53
2021/10/02 05:08:15;;;;;;;23.30;13.50;;;;;;;5.34;77.61;101016.33;1683210;83;21066;-54
2021/10/02 05:10:41;;;;;;;25.37;15.63;;;;;;;5.44;77.81;101023.84;1704770;82;21376;-53
2021/10/02 05:13:08;;;;;;;27.97;16.20;;;;;;;5.55;77.98;101024.17;1707133;82;22774;-54
2021/10/02 05:15:34;;;;;;;31.73;17.23;;;;;;;5.68;78.24;101023.20;1706533;82;20966;-53
2021/10/02 05:18:01;;;;;;;33.77;18.07;;;;;;;5.86;78.46;101025.27;1705779;82;21089;-53
2021/10/02 05:20:31;;;;;;;30.30;16.93;;;;;;;6.06;78.47;101027.33;1707664;82;20935;-54
2021/10/02 05:22:58;;;;;;;36.13;18.33;;;;;;;6.28;78.37;101018.20;1709499;82;20971;-53
2021/10/02 05:25:24;;;;;;;31.00;16.17;;;;;;;6.50;78.10;101024.63;1713286;82;21074;-54
2021/10/02 05:27:51;;;;;;;29.93;13.50;;;;;;;6.70;77.76;101028.86;1705367;82;22950;-54
2021/10/02 05:30:17;;;;;;;29.23;14.57;;;;;;;6.92;77.27;101033.92;1709521;82;21133;-54
2021/10/02 05:33:34;;;;;;;23.27;13.00;;;;;;;7.20;76.66;101029.98;1843241;75;22466;-54
2021/10/02 05:36:01;;;;;;;28.63;14.77;;;;;;;7.32;76.16;101035.14;1847567;75;21598;-54
2021/10/02 05:38:28;;;;;;;21.77;14.23;;;;;;;7.46;75.58;101032.27;1842914;75;21194;-55
2021/10/02 05:40:56;;;;;;;26.87;14.87;;;;;;;7.58;75.04;101035.62;1844572;75;20992;-55
2021/10/02 05:43:22;;;;;;;24.27;14.57;;;;;;;7.69;74.52;101029.22;1848660;76;20990;-55
2021/10/02 05:45:48;;;;;;;22.43;15.73;;;;;;;7.76;74.03;101030.43;1845152;77;22142;-54
2021/10/02 05:48:14;;;;;;;23.00;15.77;;;;;;;7.82;73.48;101029.02;1844972;75;21033;-56
2021/10/02 05:50:41;;;;;;;23.47;14.87;;;;;;;7.87;72.97;101027.58;1845139;76;21081;-55
2021/10/02 05:53:07;;;;;;;20.90;14.00;;;;;;;7.92;72.54;101029.26;1844693;75;21039;-56
2021/10/02 05:55:35;;;;;;;20.67;13.40;;;;;;;7.97;72.24;101029.20;1841331;75;20941;-55
2021/10/02 05:58:02;;;;;;;19.10;13.03;;;;;;;8.02;72.01;101024.63;1843616;76;21045;-55
2021/10/02 06:01:57;;;;;;;20.43;14.20;;;;;;;8.16;71.62;101020.37;1790883;77;22683;-55
2021/10/02 06:04:24;;;;;;;21.63;14.13;;;;;;;8.19;71.45;101026.55;1768336;78;20994;-55
2021/10/02 06:06:50;;;;;;;23.33;15.13;;;;;;;8.25;71.36;101030.45;1769491;78;21261;-55
2021/10/02 06:09:17;;;;;;;24.73;15.27;;;;;;;8.33;71.25;101025.89;1764980;78;21400;-55
2021/10/02 06:11:43;;;;;;;19.53;15.03;;;;;;;8.42;71.08;101033.34;1765749;78;21306;-55
2021/10/02 06:14:09;;;;;;;28.27;16.57;;;;;;;8.48;70.92;101035.89;1768406;78;20967;-55
2021/10/02 06:16:38;;;;;;;28.33;15.63;;;;;;;8.52;70.61;101033.11;1768120;78;20977;-55
2021/10/02 06:19:06;;;;;;;22.97;15.43;;;;;;;8.56;70.43;101036.17;1773630;78;21476;-55
2021/10/02 06:21:34;;;;;;;22.47;13.87;;;;;;;8.60;70.22;101046.37;1772296;78;20983;-55
2021/10/02 06:24:01;;;;;;;21.33;14.87;;;;;;;8.63;70.26;101040.50;1770017;78;20963;-55
2021/10/02 06:26:32;;;;;;;23.47;13.37;;;;;;;8.65;70.32;101042.70;1771427;78;20896;-55
2021/10/02 06:28:58;;;;;;;16.55;12.65;;;;;;;8.73;70.45;101043.43;1772640;78;20956;-55
2021/10/02 06:31:25;;;;;;;18.80;13.67;;;;;;;8.84;70.58;101047.25;1768748;78;21090;-55
2021/10/02 06:33:51;;;;;;;24.20;16.73;;;;;;;8.95;70.69;101033.11;1792968;78;20895;-55
2021/10/02 06:36:17;;;;;;;21.20;15.40;;;;;;;9.08;70.51;101036.44;1789618;79;20897;-55
2021/10/02 06:38:44;;;;;;;19.25;15.10;;;;;;;9.18;70.45;101033.98;1785912;79;20926;-55
2021/10/02 06:41:10;;;;;;;20.93;15.80;;;;;;;9.27;70.42;101039.12;1790933;78;20966;-55
2021/10/02 06:43:36;;;;;;;18.85;14.55;;;;;;;9.37;70.29;101035.30;1787140;78;21801;-55
2021/10/02 06:46:04;;;;;;;22.85;16.50;;;;;;;9.45;70.29;101035.12;1792411;77;21510;-56
2021/10/02 06:48:31;;;;;;;24.27;16.12;;;;;;;9.53;70.18;101037.17;1784738;78;21147;-55
2021/10/02 06:50:57;;;;;;;26.05;14.65;;;;;;;9.59;70.16;101033.02;1788875;79;21543;-55
2021/10/02 06:53:25;;;;;;;19.37;11.55;;;;;;;9.66;70.19;101032.41;1785213;78;21093;-55
2021/10/02 06:55:51;;;;;;;14.78;12.30;;;;;;;9.74;70.14;101033.09;1789254;77;21124;-55
2021/10/02 06:58:18;;;;;;;17.92;11.75;;;;;;;9.83;69.94;101035.11;1785325;77;21041;-55
2021/10/02 07:00:44;;;;;;;17.37;12.50;;;;;;;9.94;69.64;101033.95;1783420;79;21045;-55
2021/10/02 07:03:10;;;;;;;14.43;10.48;;;;;;;10.03;69.66;101037.77;1782079;79;21570;-56
2021/10/02 07:05:36;;;;;;;18.42;12.18;;;;;;;10.13;69.76;101035.23;1776148;79;20970;-54
2021/10/02 07:08:04;;;;;;;16.05;13.58;;;;;;;10.25;69.42;101032.27;1772341;79;22547;-55
2021/10/02 07:10:30;;;;;;;14.63;11.38;;;;;;;10.39;69.21;101030.07;1775272;79;21077;-56
2021/10/02 07:12:59;;;;;;;20.62;12.70;;;;;;;10.49;69.08;101034.74;1770922;78;21046;-55
2021/10/02 07:15:26;;;;;;;15.20;11.05;;;;;;;10.59;69.13;101037.14;1773576;79;21326;-56
2021/10/02 07:17:54;;;;;;;13.78;10.38;;;;;;;10.69;68.66;101030.16;1713303;82;21608;-55
2021/10/02 07:20:22;;;;;;;13.35;9.90;;;;;;;10.79;68.07;101032.55;1772899;79;22296;-55
2021/10/02 07:22:50;;;;;;;12.73;9.35;;;;;;;10.89;67.69;101033.14;1770772;79;21050;-55
2021/10/02 07:25:17;;;;;;;9.70;8.18;;;;;;;11.01;67.31;101022.02;1770669;79;21132;-55
2021/10/02 07:27:44;;;;;;;7.95;7.12;;;;;;;11.14;66.60;101023.43;1771970;79;21097;-56
2021/10/02 07:30:12;;;;;;;13.03;8.20;;;;;;;11.26;66.21;101017.64;1777761;79;21095;-55
2021/10/02 07:35:26;;;;;;;13.43;9.70;;;;;;;11.56;65.88;101013.58;1801816;78;22603;-55
2021/10/02 07:37:52;;;;;;;14.33;8.00;;;;;;;11.63;65.53;101011.09;1772583;79;20974;-55
2021/10/02 07:40:19;;;;;;;8.38;6.72;;;;;;;11.74;64.84;101014.30;1770073;79;21163;-56
2021/10/02 07:42:52;;;;;;;11.93;8.45;;;;;;;11.84;64.13;101011.75;1770459;79;21009;-57
2021/10/02 07:45:21;;;;;;;11.50;9.75;;;;;;;11.95;63.79;101010.05;1768906;79;20900;-56
2021/10/02 07:47:47;;;;;;;13.00;9.75;;;;;;;12.03;63.27;101004.80;1769663;79;20927;-55
2021/10/02 07:50:14;;;;;;;13.10;10.63;;;;;;;12.09;63.00;101005.93;1773231;79;21453;-56
2021/10/02 07:52:41;;;;;;;13.83;8.70;;;;;;;12.15;62.85;101006.67;1768823;79;20918;-55
2021/10/02 07:55:08;;;;;;;11.95;8.40;;;;;;;12.20;62.77;101008.73;1770971;79;20926;-56
2021/10/02 07:57:38;;;;;;;13.95;9.20;;;;;;;12.25;62.29;101008.97;1770719;79;21220;-57
2021/10/02 08:00:08;;;;;;;12.70;9.00;;;;;;;12.32;62.15;101016.41;1768508;79;20958;-56
2021/10/02 08:02:44;;;;;;;9.28;8.00;;;;;;;12.40;61.95;101008.45;1773433;79;21003;-57
2021/10/02 08:05:10;;;;;;;13.75;9.95;;;;;;;12.49;61.71;101007.23;1771786;79;21106;-56
2021/10/02 08:07:40;;;;;;;11.05;8.68;;;;;;;12.58;61.50;101008.73;1772456;79;20960;-56
2021/10/02 08:10:07;;;;;;;9.18;6.70;;;;;;;12.65;61.04;101011.61;1768300;79;20977;-56
2021/10/02 08:12:34;;;;;;;10.10;5.42;;;;;;;12.72;60.89;101009.97;1767973;79;21070;-56
2021/10/02 08:15:03;;;;;;;10.75;7.65;;;;;;;12.80;59.79;101008.33;1765210;79;21069;-56
2021/10/02 08:17:33;;;;;;;10.15;8.80;;;;;;;12.87;59.21;100999.93;1769886;79;20891;-56
2021/10/02 08:20:08;;;;;;;14.03;10.53;;;;;;;12.93;59.39;100999.30;1770421;79;21340;-57
2021/10/02 08:22:33;;;;;;;16.25;7.22;;;;;;;12.96;59.13;101001.41;1769085;79;20930;-56
2021/10/02 08:24:59;;;;;;;10.78;7.15;;;;;;;13.02;58.58;100995.75;1769311;79;21542;-55
2021/10/02 08:27:26;;;;;;;9.23;8.25;;;;;;;13.10;58.09;100997.69;1764494;79;21096;-56
2021/10/02 08:29:54;;;;;;;12.68;8.03;;;;;;;13.16;58.00;100996.16;1765247;79;21063;-56
2021/10/02 08:32:20;;;;;;;8.63;6.72;;;;;;;13.20;57.82;100993.72;1762319;79;21050;-55
2021/10/02 08:34:46;;;;;;;11.25;7.67;;;;;;;13.22;57.30;100993.67;1757158;79;21064;-57
2021/10/02 08:37:14;;;;;;;11.33;9.10;;;;;;;13.24;57.15;100994.50;1754522;80;21376;-56
2021/10/02 08:39:40;;;;;;;9.18;6.85;;;;;;;13.32;57.07;100995.54;1751578;79;21059;-55
2021/10/02 08:42:07;;;;;;;13.22;8.10;;;;;;;13.39;56.76;100994.34;1751957;79;21139;-56
2021/10/02 08:44:34;;;;;;;9.43;6.70;;;;;;;13.46;56.48;100989.98;1756034;79;20959;-56
2021/10/02 08:47:02;;;;;;;10.35;6.60;;;;;;;13.54;56.01;100993.72;1696454;83;21150;-57
2021/10/02 08:49:36;;;;;;;10.23;6.90;;;;;;;13.59;55.51;100991.26;1753014;79;21037;-56
2021/10/02 08:52:04;;;;;;;10.08;7.08;;;;;;;13.68;55.52;100993.17;1754871;80;21058;-55
2021/10/02 08:54:35;;;;;;;8.08;7.10;;;;;;;13.72;55.04;100988.03;1759502;79;21081;-55
2021/10/02 08:57:08;;;;;;;10.93;8.78;;;;;;;13.78;54.26;100988.64;1756255;79;20955;-55
2021/10/02 08:59:37;;;;;;;9.08;5.00;;;;;;;13.83;54.18;100981.23;1757849;80;21481;-57
2021/10/02 09:02:05;;;;;;;9.43;4.72;;;;;;;13.88;53.64;100983.73;1753370;80;20997;-57
2021/10/02 09:04:33;;;;;;;8.08;4.35;;;;;;;13.93;53.84;100981.26;1740480;80;21575;-57
2021/10/02 09:07:02;;;;;;;12.58;5.03;;;;;;;13.93;53.84;100981.26;1755068;80;21140;-55
2021/10/02 09:09:33;;;;;;;8.10;3.85;;;;;;;13.96;53.29;100974.34;1753984;79;21440;-54
2021/10/02 09:12:00;;;;;;;7.83;4.58;;;;;;;13.99;53.08;100978.75;1759308;79;21104;-57
2021/10/02 09:14:26;;;;;;;6.42;3.52;;;;;;;14.01;52.68;100976.86;1754317;79;21093;-56
2021/10/02 09:16:55;;;;;;;3.90;3.50;;;;;;;14.10;51.93;100968.81;1750296;79;21112;-56
2021/10/02 09:19:21;;;;;;;7.08;4.17;;;;;;;14.10;51.93;100968.81;1752243;79;21137;-56
2021/10/02 09:22:01;;;;;;;6.75;2.22;;;;;;;14.18;52.48;100973.42;1756106;79;21009;-56
2021/10/02 09:24:36;;;;;;;6.30;3.62;;;;;;;14.24;51.84;100974.03;1753943;80;21591;-56
2021/10/02 09:27:04;;;;;;;7.17;3.33;;;;;;;14.33;51.36;100964.14;1756323;79;21337;-56
2021/10/02 09:29:41;;;;;;;8.03;4.17;;;;;;;14.41;51.03;100965.19;1753712;80;20938;-56
2021/10/02 09:32:11;;;;;;;4.72;2.87;;;;;;;14.49;51.31;100967.08;1753971;80;21130;-57
2021/10/02 09:34:53;;;;;;;8.03;2.52;;;;;;;14.55;50.97;100965.44;1750249;80;21092;-56
2021/10/02 09:37:34;;;;;;;4.90;4.03;;;;;;;14.61;50.11;100957.05;1745429;79;21034;-56
2021/10/02 09:40:08;;;;;;;6.35;4.08;;;;;;;14.68;49.76;100954.93;1748512;79;21133;-56
2021/10/02 09:42:41;;;;;;;9.10;3.25;;;;;;;14.74;50.50;100958.70;1747602;79;21082;-56
2021/10/02 09:45:17;;;;;;;4.25;1.82;;;;;;;14.78;50.12;100951.33;1747537;80;21407;-56
2021/10/02 09:47:49;;;;;;;11.73;1.95;;;;;;;14.82;49.22;100957.88;1745710;79;21045;-57
2021/10/02 09:50:19;;;;;;;4.83;2.53;;;;;;;14.83;48.93;100947.91;1743373;80;21112;-56
2021/10/02 09:52:56;;;;;;;11.90;2.20;;;;;;;14.86;49.25;100948.66;1749194;80;20974;-56
2021/10/02 09:55:36;;;;;;;3.33;1.65;;;;;;;14.90;49.16;100944.84;1749859;79;21089;-58
2021/10/02 09:58:12;;;;;;;2.65;1.80;;;;;;;14.98;48.49;100935.86;1748383;79;22683;-57
2021/10/02 10:00:42;;;;;;;4.33;1.05;;;;;;;14.98;48.49;100935.86;1748781;79;20966;-56
2021/10/02 10:03:11;;;;;;;2.72;1.30;;;;;;;15.02;48.69;100938.84;1750378;79;21081;-56
2021/10/02 10:05:40;;;;;;;5.30;1.60;;;;;;;15.07;48.59;100932.71;1749358;79;21617;-57
2021/10/02 10:08:12;;;;;;;7.40;1.57;;;;;;;15.11;48.28;100930.27;1749673;79;21045;-57
2021/10/02 10:10:40;;;;;;;3.62;2.08;;;;;;;15.14;47.98;100930.61;1748726;79;22395;-56
2021/10/02 10:13:14;;;;;;;3.77;2.25;;;;;;;15.17;48.21;100924.13;1746145;80;21074;-56
2021/10/02 10:15:44;;;;;;;5.30;2.35;;;;;;;15.19;48.47;100923.12;1750171;79;21375;-56
2021/10/02 10:18:13;;;;;;;7.83;3.02;;;;;;;15.22;48.26;100920.74;1753553;79;20930;-57
2021/10/02 10:20:50;;;;;;;4.65;2.12;;;;;;;15.26;48.61;100923.69;1753377;79;20962;-56
2021/10/02 10:23:37;;;;;;;2.37;2.00;;;;;;;15.30;48.35;100909.03;1754057;79;20934;-56
2021/10/02 10:26:10;;;;;;;6.50;3.27;;;;;;;15.31;47.87;100916.22;1750734;79;20895;-57
2021/10/02 10:28:40;;;;;;;5.33;2.37;;;;;;;15.32;47.51;100903.03;1754693;79;20911;-56
2021/10/02 10:31:16;;;;;;;6.40;2.95;;;;;;;15.30;47.52;100905.84;1753985;79;20999;-56
2021/10/02 10:33:48;;;;;;;8.28;2.42;;;;;;;15.26;47.73;100906.94;1754800;80;20966;-56
2021/10/02 10:36:16;;;;;;;5.47;2.58;;;;;;;15.22;47.94;100905.82;1752214;79;20941;-55
2021/10/02 10:38:43;;;;;;;2.85;1.67;;;;;;;15.23;47.79;100900.30;1752295;79;20879;-56
2021/10/02 10:41:11;;;;;;;2.12;1.30;;;;;;;15.19;47.56;100895.99;1749711;79;20931;-56
2021/10/02 10:43:38;;;;;;;1.40;1.10;;;;;;;15.12;47.61;100897.25;1751303;79;20903;-56
2021/10/02 10:46:07;;;;;;;4.15;1.30;;;;;;;15.04;47.52;100893.56;1757706;79;20923;-57
2021/10/02 10:48:34;;;;;;;12.28;1.90;;;;;;;15.03;47.05;100890.92;1749185;79;21084;-56
2021/10/02 10:51:09;;;;;;;4.30;1.30;;;;;;;15.01;47.25;100889.63;1751555;80;20883;-57
2021/10/02 10:53:41;;;;;;;5.12;1.10;;;;;;;15.03;47.28;100890.45;1752273;80;20865;-55
2021/10/02 10:56:10;;;;;;;2.72;1.15;;;;;;;15.09;47.77;100883.83;1750754;79;20928;-56
2021/10/02 10:58:37;;;;;;;3.77;2.22;;;;;;;15.12;47.45;100875.09;1751808;79;20990;-56
2021/10/02 11:01:09;;;;;;;2.02;1.50;;;;;;;15.15;46.51;100880.34;1754027;79;21190;-58
2021/10/02 11:03:46;;;;;;;1.77;1.20;;;;;;;15.15;46.89;100872.67;1746400;80;21108;-56
2021/10/02 11:06:18;;;;;;;3.58;1.10;;;;;;;15.18;47.25;100871.18;1747735;79;21007;-57
2021/10/02 11:09:00;;;;;;;2.12;1.40;;;;;;;15.22;46.71;100873.27;1746685;79;21372;-56
2021/10/02 11:11:54;;;;;;;6.92;1.10;;;;;;;15.24;46.17;100869.51;1749756;79;21136;-56
2021/10/02 11:14:46;;;;;;;1.52;1.22;;;;;;;15.25;46.17;100863.13;1749550;79;21132;-57
2021/10/02 11:17:31;;;;;;;5.87;0.93;;;;;;;15.25;45.72;100855.47;1750058;79;21097;-55
2021/10/02 11:20:27;;;;;;;2.62;1.00;;;;;;;15.28;45.92;100860.76;1751274;79;21053;-55
2021/10/02 11:23:27;;;;;;;1.37;0.93;;;;;;;15.31;46.40;100855.19;1748680;79;21040;-53
2021/10/02 11:26:26;;;;;;;4.00;1.95;;;;;;;15.36;46.45;100857.17;1748207;79;21499;-58
2021/10/02 11:29:06;;;;;;;2.42;1.10;;;;;;;15.38;46.26;100855.27;1747802;79;21034;-56
2021/10/02 11:31:34;;;;;;;4.12;1.55;;;;;;;15.39;45.98;100853.84;1752460;79;21052;-57
2021/10/02 11:34:01;;;;;;;3.67;1.45;;;;;;;15.41;45.78;100849.20;1756638;79;21089;-58
2021/10/02 11:36:36;;;;;;;4.12;1.77;;;;;;;15.43;45.95;100847.30;1749471;80;21376;-56
2021/10/02 11:39:16;;;;;;;5.15;1.07;;;;;;;15.46;45.74;100843.08;1750990;80;21036;-56
2021/10/02 11:41:57;;;;;;;3.98;0.90;;;;;;;15.48;45.01;100850.63;1750544;79;21686;-56
2021/10/02 11:44:38;;;;;;;2.60;0.90;;;;;;;15.45;44.97;100844.03;1750959;79;21506;-56
2021/10/02 11:47:37;;;;;;;2.55;0.80;;;;;;;15.45;45.04;100838.61;1752109;79;21002;-56
2021/10/02 11:50:15;;;;;;;4.22;1.12;;;;;;;15.47;45.18;100836.70;1750030;79;21052;-56
2021/10/02 11:52:53;;;;;;;5.58;1.87;;;;;;;15.48;44.64;100830.28;1749910;80;21164;-55
2021/10/02 11:55:39;;;;;;;2.98;1.22;;;;;;;15.49;44.51;100836.59;1746736;79;21524;-56
2021/10/02 11:58:11;;;;;;;4.47;1.55;;;;;;;15.49;44.78;100840.66;1743119;79;21440;-55
2021/10/02 12:00:51;;;;;;;5.33;0.90;;;;;;;15.51;44.95;100834.21;1751494;79;21493;-54
2021/10/02 12:03:32;;;;;;;12.18;1.10;;;;;;;15.53;44.36;100827.35;1749555;79;21057;-55
2021/10/02 12:06:01;;;;;;;2.22;0.93;;;;;;;15.54;44.51;100829.14;1747028;80;21410;-56
2021/10/02 12:08:29;;;;;;;2.02;1.20;;;;;;;15.55;44.35;100827.31;1751299;79;22421;-55
2021/10/02 12:11:11;;;;;;;6.62;1.50;;;;;;;15.51;44.56;100831.50;1748089;79;21070;-54
2021/10/02 12:13:49;;;;;;;2.42;1.07;;;;;;;15.51;44.17;100836.04;1745897;79;21065;-55
2021/10/02 12:16:26;;;;;;;3.35;1.12;;;;;;;15.49;43.96;100821.67;1747975;80;20931;-54
2021/10/02 12:19:08;;;;;;;4.60;0.90;;;;;;;15.49;44.01;100823.91;1746633;80;21801;-55
2021/10/02 12:21:41;;;;;;;1.30;1.10;;;;;;;15.50;44.16;100822.95;1751556;80;21046;-56
2021/10/02 12:24:17;;;;;;;1.82;0.98;;;;;;;15.51;44.10;100822.47;1749565;79;21042;-55
2021/10/02 12:29:52;;;;;;;2.50;1.10;;;;;;;15.56;44.13;100820.93;1791016;78;26983;-56
2021/10/02 12:32:23;;;;;;;2.95;1.00;;;;;;;15.51;44.17;100833.33;1755920;79;21107;-55
2021/10/02 12:34:52;;;;;;;2.08;1.22;;;;;;;15.53;44.21;100821.92;1746164;80;21341;-54
2021/10/02 12:37:33;;;;;;;6.45;1.77;;;;;;;15.54;44.10;100820.13;1750528;80;21068;-54
2021/10/02 12:40:09;;;;;;;2.77;1.42;;;;;;;15.55;44.35;100819.17;1753058;80;20942;-55